Delta Virtual Airport Information Service

Norfolk International Airport

ICAO: KORF Country: United States
Latitude: 36.8946 Longitude: -76.2012
Latest Arrival : AAY1722 (1A) (KFLL-KORF) Latest Departure : DAC8359 (KORF-KPIT)


WX CaptureLIVE
Data provided by noaa.gov | Fetched at 10:50:52

METAR : KORF 231551Z 35015G28KT 10SM FEW019 SCT030 BKN036 14/08 A3006 RMK AO2 PK WND 36028/1547 SLP177 T01390078

TAF : KORF 231527Z 2315/2412 35015G23KT P6SM BKN025 FM231600 33013G20KT P6SM FEW040 FM240300 36011KT P6SM SKC


Runway Data for KORF
Data provided by openaviationdata.com

Runway ID Mag Var Hdg Length Elevation Surface ILS Freq ILS Id ILS Slope
5 -10 48° 9004 ft 26 ft Asphalt 109.1 IORF 3
14 -10 138° 4874 ft 26 ft Asphalt -- -- --
23 -10 228° 9004 ft 26 ft Asphalt 109.1 IJZQ 3
32 -10 318° 4874 ft 26 ft Asphalt -- -- --

Norfolk International Airport, United States
Use only for reference purposes



Not for navigational purposes.